createdAt,value
2019-04-28T00:01:41.377Z,85.34
2019-04-28T00:04:11.598Z,85.75
2019-04-28T00:06:42.352Z,85.32
2019-04-28T00:09:13.362Z,84.80
2019-04-28T00:11:43.471Z,85.04
2019-04-28T00:14:13.662Z,85.46
2019-04-28T00:16:43.804Z,85.24
2019-04-28T00:19:13.875Z,84.99
2019-04-28T00:21:58.878Z,85.18
2019-04-28T00:24:51.512Z,85.69
2019-04-28T00:27:21.738Z,85.32
2019-04-28T00:29:52.905Z,85.64
2019-04-28T00:32:23.125Z,85.85
2019-04-28T00:34:53.184Z,86.22
2019-04-28T00:37:34.861Z,86.10
2019-04-28T00:40:07.242Z,85.67
2019-04-28T00:42:37.360Z,85.52
2019-04-28T00:45:09.230Z,85.98
2019-04-28T00:47:40.834Z,85.96
2019-04-28T00:50:11.776Z,86.39
2019-04-28T00:52:42.016Z,86.35
2019-04-28T00:55:12.168Z,85.86
2019-04-28T00:57:42.426Z,85.95
2019-04-28T01:00:13.591Z,85.58
2019-04-28T01:02:44.145Z,85.97
2019-04-28T01:05:14.552Z,85.73
2019-04-28T01:07:44.656Z,85.57
2019-04-28T01:10:15.118Z,86.63
2019-04-28T01:12:46.744Z,86.92
2019-04-28T01:15:39.529Z,86.09
2019-04-28T01:18:16.248Z,86.97
2019-04-28T01:20:46.307Z,86.58
2019-04-28T01:23:16.382Z,86.77
2019-04-28T01:25:50.064Z,86.91
2019-04-28T01:28:21.344Z,86.54
2019-04-28T01:31:16.576Z,86.39
2019-04-28T01:34:05.606Z,86.45
2019-04-28T01:36:37.474Z,86.23
2019-04-28T01:39:09.929Z,86.62
2019-04-28T01:41:39.911Z,86.26
2019-04-28T01:44:10.322Z,86.56
2019-04-28T01:46:40.524Z,86.49
2019-04-28T01:49:10.623Z,85.94
2019-04-28T01:51:41.596Z,86.27
2019-04-28T01:54:11.880Z,86.41
2019-04-28T01:56:41.938Z,85.48
2019-04-28T01:59:12.014Z,86.94
2019-04-28T02:01:42.378Z,87.02
2019-04-28T02:04:12.548Z,86.55
2019-04-28T02:06:42.626Z,86.95
2019-04-28T02:09:12.816Z,86.72
2019-04-28T02:11:42.905Z,87.05
2019-04-28T02:14:12.982Z,86.97
2019-04-28T02:16:43.087Z,86.99
2019-04-28T02:19:13.153Z,87.56
2019-04-28T02:21:49.641Z,87.33
2019-04-28T02:24:30.775Z,87.23
2019-04-28T02:27:01.696Z,86.92
2019-04-28T02:29:31.745Z,87.18
2019-04-28T02:32:02.479Z,86.67
2019-04-28T02:34:32.829Z,86.93
2019-04-28T02:37:02.886Z,87.03
2019-04-28T02:39:32.956Z,87.83
2019-04-28T02:42:03.033Z,87.67
2019-04-28T02:44:35.095Z,87.28
2019-04-28T02:47:05.043Z,87.88
2019-04-28T02:49:42.318Z,87.55
2019-04-28T02:52:22.449Z,87.38
2019-04-28T02:54:52.552Z,87.70
2019-04-28T02:57:22.661Z,87.92
2019-04-28T02:59:52.728Z,87.49
2019-04-28T03:02:22.918Z,88.25
2019-04-28T03:04:52.996Z,87.79
2019-04-28T03:07:23.079Z,87.63
2019-04-28T03:09:53.166Z,87.73
2019-04-28T03:12:23.239Z,88.29
2019-04-28T03:14:53.320Z,88.10
2019-04-28T03:17:23.404Z,88.02
2019-04-28T03:19:53.503Z,88.25
2019-04-28T03:22:23.588Z,88.75
2019-04-28T03:24:57.444Z,88.84
2019-04-28T03:27:34.681Z,88.05
2019-04-28T03:30:23.963Z,88.65
2019-04-28T03:33:00.236Z,88.16
2019-04-28T03:35:26.291Z,88.27
2019-04-28T03:37:56.464Z,88.24
2019-04-28T03:40:26.585Z,88.14
2019-04-28T03:42:59.464Z,88.57
2019-04-28T03:45:33.071Z,88.21
2019-04-28T03:48:03.143Z,88.16
2019-04-28T03:50:33.256Z,87.86
2019-04-28T03:53:03.337Z,88.55
2019-04-28T03:55:34.965Z,88.06
2019-04-28T03:58:05.215Z,88.43
2019-04-28T04:00:35.301Z,87.76
2019-04-28T04:03:05.361Z,88.09
2019-04-28T04:05:35.466Z,87.97
2019-04-28T04:08:05.547Z,88.04
2019-04-28T04:10:50.155Z,88.27
2019-04-28T04:13:33.000Z,88.05
2019-04-28T04:16:20.903Z,88.04
2019-04-28T04:18:53.620Z,88.44
2019-04-28T04:21:24.193Z,87.76
2019-04-28T04:23:54.279Z,87.64
2019-04-28T04:26:24.355Z,87.95
2019-04-28T04:28:54.429Z,88.10
2019-04-28T04:31:24.493Z,88.04
2019-04-28T04:33:54.580Z,87.88
2019-04-28T04:36:24.658Z,87.67
2019-04-28T04:38:54.728Z,87.94
2019-04-28T04:41:24.850Z,87.28
2019-04-28T04:43:54.922Z,87.78
2019-04-28T04:46:25.897Z,87.41
2019-04-28T04:48:56.013Z,88.02
2019-04-28T04:51:26.082Z,87.75
2019-04-28T04:53:56.151Z,87.92
2019-04-28T04:56:26.336Z,88.00
2019-04-28T04:58:56.589Z,87.68
2019-04-28T05:01:35.546Z,87.17
2019-04-28T05:04:14.709Z,86.79
2019-04-28T05:06:44.769Z,86.72
2019-04-28T05:09:14.878Z,87.00
2019-04-28T05:11:44.961Z,87.81
2019-04-28T05:14:15.062Z,87.45
2019-04-28T05:16:45.135Z,88.00
2019-04-28T05:19:15.233Z,87.60
2019-04-28T05:21:45.275Z,88.00
2019-04-28T05:24:40.423Z,87.21
2019-04-28T05:27:10.508Z,87.67
2019-04-28T05:29:40.607Z,86.81
2019-04-28T05:32:10.896Z,87.38
2019-04-28T05:34:46.725Z,88.11
2019-04-28T05:37:12.926Z,88.13
2019-04-28T05:39:43.054Z,87.69
2019-04-28T05:42:13.149Z,87.93
2019-04-28T05:44:43.240Z,87.16
2019-04-28T05:47:13.287Z,88.01
2019-04-28T05:50:07.252Z,87.72
2019-04-28T05:53:00.564Z,87.64
2019-04-28T05:56:02.295Z,87.82
2019-04-28T05:58:37.808Z,88.09
2019-04-28T06:01:21.888Z,87.92
2019-04-28T06:03:51.966Z,87.93
2019-04-28T06:06:24.221Z,87.82
2019-04-28T06:09:16.108Z,88.11
2019-04-28T06:11:46.185Z,87.34
2019-04-28T06:14:16.234Z,88.22
2019-04-28T06:16:46.338Z,88.03
2019-04-28T06:19:16.430Z,87.93
2019-04-28T06:21:46.500Z,88.29
2019-04-28T06:24:16.561Z,87.70
2019-04-28T06:26:46.666Z,88.26
2019-04-28T06:29:17.065Z,88.33
2019-04-28T06:31:47.188Z,88.07
2019-04-28T06:34:17.241Z,87.53
2019-04-28T06:36:47.369Z,87.80
2019-04-28T06:39:17.448Z,87.38
2019-04-28T06:41:47.546Z,87.64
2019-04-28T06:44:17.592Z,88.30
2019-04-28T06:46:47.691Z,87.86
2019-04-28T06:49:17.762Z,88.03
2019-04-28T06:51:47.846Z,87.54
2019-04-28T06:54:17.905Z,87.80
2019-04-28T06:56:48.032Z,87.59
2019-04-28T06:59:18.139Z,87.70
2019-04-28T07:01:48.246Z,87.44
2019-04-28T07:04:18.350Z,87.15
2019-04-28T07:06:48.471Z,87.00
2019-04-28T07:09:18.590Z,87.24
2019-04-28T07:11:48.657Z,87.00
2019-04-28T07:14:18.757Z,87.34
2019-04-28T07:16:48.919Z,87.09
2019-04-28T07:19:18.977Z,87.08
2019-04-28T07:22:12.001Z,86.49
2019-04-28T07:24:44.785Z,87.61
2019-04-28T07:27:14.025Z,87.61
2019-04-28T07:29:44.131Z,87.65
2019-04-28T07:32:14.307Z,86.78
2019-04-28T07:34:44.410Z,87.09
2019-04-28T07:37:14.492Z,87.39
2019-04-28T07:39:44.613Z,87.83
2019-04-28T07:42:14.707Z,87.50
2019-04-28T07:44:44.865Z,87.17
2019-04-28T07:47:14.998Z,87.20
2019-04-28T07:49:45.071Z,87.58
2019-04-28T07:52:24.540Z,87.25
2019-04-28T07:54:54.696Z,87.62
2019-04-28T07:57:24.934Z,86.13
2019-04-28T07:59:55.015Z,86.54
2019-04-28T08:02:25.438Z,85.53
2019-04-28T08:04:55.540Z,87.16
2019-04-28T08:07:25.767Z,86.38
2019-04-28T08:09:55.867Z,86.76
2019-04-28T08:12:25.992Z,86.88
2019-04-28T08:14:56.094Z,86.79
2019-04-28T08:17:26.201Z,87.60
2019-04-28T08:19:56.299Z,87.80
2019-04-28T08:22:26.414Z,88.00
2019-04-28T08:24:56.483Z,88.24
2019-04-28T08:27:26.631Z,88.07
2019-04-28T08:29:58.715Z,88.46
2019-04-28T08:32:47.654Z,88.06
2019-04-28T08:35:17.772Z,88.15
2019-04-28T08:37:47.835Z,87.52
2019-04-28T08:40:17.977Z,86.81
2019-04-28T08:42:48.066Z,87.55
2019-04-28T08:45:18.205Z,87.85
2019-04-28T08:47:48.352Z,87.10
2019-04-28T08:50:18.475Z,87.71
2019-04-28T08:52:48.562Z,88.02
2019-04-28T08:55:18.638Z,87.83
2019-04-28T08:57:48.772Z,88.67
2019-04-28T09:00:18.981Z,87.79
2019-04-28T09:02:49.130Z,87.89
2019-04-28T09:05:19.237Z,87.93
2019-04-28T09:07:49.356Z,88.28
2019-04-28T09:10:19.481Z,87.98
2019-04-28T09:12:49.594Z,87.65
2019-04-28T09:15:19.695Z,88.19
2019-04-28T09:17:49.841Z,87.84
2019-04-28T09:20:20.198Z,87.79
2019-04-28T09:22:50.274Z,87.83
2019-04-28T09:25:20.403Z,88.46
2019-04-28T09:27:50.521Z,86.00
2019-04-28T09:30:22.382Z,87.49
2019-04-28T09:32:52.514Z,86.64
2019-04-28T09:35:22.664Z,86.78
2019-04-28T09:37:55.265Z,84.93
2019-04-28T09:40:25.383Z,84.46
2019-04-28T09:43:01.279Z,85.51
2019-04-28T09:45:37.773Z,85.81
2019-04-28T09:48:07.871Z,87.50
2019-04-28T09:50:38.068Z,86.66
2019-04-28T09:53:08.154Z,85.57
2019-04-28T09:55:40.669Z,86.59
2019-04-28T09:58:11.060Z,84.74
2019-04-28T10:00:42.762Z,84.80
2019-04-28T10:03:12.856Z,84.61
2019-04-28T10:05:43.019Z,84.84
2019-04-28T10:08:13.159Z,84.22
2019-04-28T10:10:43.298Z,84.82
2019-04-28T10:13:13.499Z,84.60
2019-04-28T10:15:43.582Z,83.13
2019-04-28T10:18:13.704Z,83.88
2019-04-28T10:20:43.841Z,84.61
2019-04-28T10:23:13.946Z,83.09
2019-04-28T10:25:44.246Z,84.99
2019-04-28T10:28:14.417Z,84.12
2019-04-28T10:30:44.546Z,85.53
2019-04-28T10:33:14.694Z,84.52
2019-04-28T10:35:47.387Z,84.90
2019-04-28T10:38:17.504Z,85.35
2019-04-28T10:40:56.732Z,85.27
2019-04-28T10:43:29.942Z,84.77
2019-04-28T10:46:00.298Z,84.55
2019-04-28T10:48:30.501Z,86.29
2019-04-28T10:51:01.316Z,85.70
2019-04-28T10:53:31.517Z,85.26
2019-04-28T10:56:01.654Z,85.21
2019-04-28T10:58:31.717Z,85.42
2019-04-28T11:01:01.894Z,85.10
2019-04-28T11:03:32.013Z,83.54
2019-04-28T11:06:02.193Z,84.05
2019-04-28T11:09:03.508Z,82.45
2019-04-28T11:11:33.725Z,83.27
2019-04-28T11:14:03.882Z,83.11
2019-04-28T11:16:36.931Z,82.73
2019-04-28T11:19:07.395Z,82.51
2019-04-28T11:21:37.523Z,82.84
2019-04-28T11:24:07.726Z,83.21
2019-04-28T11:26:37.948Z,81.67
2019-04-28T11:29:08.212Z,82.92
2019-04-28T11:31:38.291Z,80.49
2019-04-28T11:34:33.422Z,82.40
2019-04-28T11:37:03.756Z,82.17
2019-04-28T11:39:36.486Z,82.72
2019-04-28T11:42:06.650Z,78.65
2019-04-28T11:44:36.754Z,80.37
2019-04-28T11:47:09.715Z,78.61
2019-04-28T11:49:39.826Z,76.83
2019-04-28T11:52:10.138Z,75.35
2019-04-28T11:54:40.274Z,78.95
2019-04-28T11:57:10.368Z,75.97
2019-04-28T11:59:41.939Z,75.98
2019-04-28T12:02:12.049Z,74.19
2019-04-28T12:04:42.213Z,74.45
2019-04-28T12:07:12.445Z,73.82
2019-04-28T12:10:03.726Z,72.15
2019-04-28T12:12:33.016Z,70.71
2019-04-28T12:15:22.049Z,71.96
2019-04-28T12:18:10.011Z,73.10
2019-04-28T12:20:40.548Z,72.12
2019-04-28T12:23:10.644Z,72.43
2019-04-28T12:25:40.916Z,72.57
2019-04-28T12:28:11.020Z,69.87
2019-04-28T12:30:41.172Z,73.82
2019-04-28T12:33:12.986Z,68.84
2019-04-28T12:35:48.097Z,70.12
2019-04-28T12:38:15.231Z,67.79
2019-04-28T12:40:45.400Z,66.56
2019-04-28T12:43:15.495Z,70.20
2019-04-28T12:45:45.625Z,69.48
2019-04-28T12:48:15.757Z,67.93
2019-04-28T12:50:50.586Z,69.81
2019-04-28T12:53:20.909Z,69.96
2019-04-28T12:55:51.083Z,69.54
2019-04-28T12:58:21.194Z,68.78
2019-04-28T13:01:07.502Z,67.59
2019-04-28T13:03:42.015Z,68.16
2019-04-28T13:06:14.740Z,66.15
2019-04-28T13:08:44.848Z,67.36
2019-04-28T13:11:14.949Z,67.27
2019-04-28T13:13:46.891Z,68.92
2019-04-28T13:16:16.924Z,67.82
2019-04-28T13:18:47.048Z,67.27
2019-04-28T13:21:17.185Z,68.14
2019-04-28T13:23:47.360Z,68.66
2019-04-28T13:26:17.556Z,68.71
2019-04-28T13:28:47.726Z,68.24
2019-04-28T13:31:17.847Z,67.84
2019-04-28T13:33:56.472Z,69.66
2019-04-28T13:36:19.982Z,69.99
2019-04-28T13:38:50.119Z,67.98
2019-04-28T13:41:22.425Z,69.67
2019-04-28T13:43:53.226Z,70.44
2019-04-28T13:46:24.401Z,71.58
2019-04-28T13:48:58.082Z,71.61
2019-04-28T13:51:28.278Z,69.38
2019-04-28T13:54:00.046Z,70.07
2019-04-28T13:56:32.392Z,68.40
2019-04-28T13:59:21.126Z,68.86
2019-04-28T14:02:01.536Z,70.54
2019-04-28T14:04:47.426Z,68.75
2019-04-28T14:07:18.511Z,67.48
2019-04-28T14:09:50.089Z,67.96
2019-04-28T14:12:21.176Z,66.10
2019-04-28T14:14:51.751Z,64.92
2019-04-28T14:17:22.535Z,62.80
2019-04-28T14:19:52.638Z,64.03
2019-04-28T14:22:23.240Z,63.35
2019-04-28T14:24:53.701Z,62.06
2019-04-28T14:27:24.043Z,60.20
2019-04-28T14:29:54.268Z,60.32
2019-04-28T14:32:24.379Z,57.47
2019-04-28T14:34:54.667Z,55.91
2019-04-28T14:37:24.885Z,56.67
2019-04-28T14:39:55.809Z,51.88
2019-04-28T14:42:25.971Z,50.77
2019-04-28T14:44:56.548Z,50.10
2019-04-28T14:47:30.662Z,51.75
2019-04-28T14:50:02.908Z,51.35
2019-04-28T14:52:33.737Z,54.30
2019-04-28T14:55:03.983Z,52.91
2019-04-28T14:57:34.124Z,54.92
2019-04-28T15:00:04.757Z,52.79
2019-04-28T15:02:42.560Z,51.91
2019-04-28T15:05:39.303Z,55.19
2019-04-28T15:08:41.515Z,54.53
2019-04-28T15:11:17.907Z,56.79
2019-04-28T15:13:48.182Z,56.97
2019-04-28T15:16:18.683Z,57.34
2019-04-28T15:18:48.819Z,57.95
2019-04-28T15:21:19.284Z,58.33
2019-04-28T15:23:52.400Z,55.90
2019-04-28T15:26:22.914Z,50.45
2019-04-28T15:28:53.588Z,47.02
2019-04-28T15:31:23.846Z,47.31
2019-04-28T15:33:54.180Z,48.82
2019-04-28T15:36:24.853Z,47.25
2019-04-28T15:38:54.990Z,46.89
2019-04-28T15:41:25.416Z,46.33
2019-04-28T15:43:55.714Z,46.39
2019-04-28T15:46:25.936Z,46.69
2019-04-28T15:48:56.386Z,45.67
2019-04-28T15:51:30.594Z,44.50
2019-04-28T15:54:01.016Z,45.99
2019-04-28T15:57:02.462Z,42.35
2019-04-28T15:59:36.491Z,48.33
2019-04-28T16:02:07.092Z,45.12
2019-04-28T16:04:38.572Z,42.99
2019-04-28T16:07:08.710Z,44.64
2019-04-28T16:09:41.030Z,46.42
2019-04-28T16:12:11.044Z,48.45
2019-04-28T16:14:41.413Z,47.92
2019-04-28T16:17:11.539Z,49.20
2019-04-28T16:19:41.796Z,49.48
2019-04-28T16:22:12.573Z,50.46
2019-04-28T16:24:44.794Z,52.99
2019-04-28T16:27:15.442Z,48.06
2019-04-28T16:29:45.692Z,50.72
2019-04-28T16:32:15.811Z,54.55
2019-04-28T16:34:45.962Z,53.33
2019-04-28T16:37:16.117Z,54.76
2019-04-28T16:39:46.208Z,55.53
2019-04-28T16:42:31.217Z,56.33
2019-04-28T16:45:22.265Z,57.54
2019-04-28T16:47:52.464Z,58.78
2019-04-28T16:50:22.554Z,59.33
2019-04-28T16:52:52.704Z,58.73
2019-04-28T16:55:27.289Z,58.78
2019-04-28T16:58:34.802Z,59.16
2019-04-28T17:01:20.267Z,59.50
2019-04-28T17:03:50.398Z,60.02
2019-04-28T17:06:20.535Z,60.72
2019-04-28T17:08:50.672Z,60.54
2019-04-28T17:11:20.870Z,60.77
2019-04-28T17:13:51.079Z,61.08
2019-04-28T17:16:21.254Z,60.47
2019-04-28T17:18:51.405Z,61.05
2019-04-28T17:21:21.627Z,61.41
2019-04-28T17:23:51.783Z,62.24
2019-04-28T17:26:21.901Z,61.94
2019-04-28T17:28:52.126Z,61.06
2019-04-28T17:31:22.285Z,61.23
2019-04-28T17:33:52.466Z,61.60
2019-04-28T17:36:22.770Z,62.00
2019-04-28T17:38:53.028Z,62.33
2019-04-28T17:41:26.822Z,63.20
2019-04-28T17:43:56.976Z,62.80
2019-04-28T17:46:27.121Z,63.76
2019-04-28T17:48:58.723Z,63.01
2019-04-28T17:51:29.091Z,64.44
2019-04-28T17:53:59.658Z,64.65
2019-04-28T17:56:29.852Z,64.60
2019-04-28T17:59:00.089Z,65.46
2019-04-28T18:01:58.616Z,66.06
2019-04-28T18:04:39.773Z,65.97
2019-04-28T18:07:14.046Z,67.55
2019-04-28T18:09:44.319Z,67.22
2019-04-28T18:12:14.465Z,67.90
2019-04-28T18:14:46.481Z,68.26
2019-04-28T18:17:44.892Z,68.75
2019-04-28T18:20:15.211Z,68.89
2019-04-28T18:22:45.339Z,69.79
2019-04-28T18:25:15.571Z,69.51
2019-04-28T18:27:45.786Z,70.84
2019-04-28T18:30:17.854Z,71.59
2019-04-28T18:33:00.228Z,71.31
2019-04-28T18:35:38.386Z,71.82
2019-04-28T18:38:14.866Z,72.56
2019-04-28T18:41:09.907Z,72.81
2019-04-28T18:43:59.609Z,72.98
2019-04-28T18:46:31.107Z,73.71
2019-04-28T18:49:01.490Z,74.65
2019-04-28T18:51:31.823Z,75.26
2019-04-28T18:54:04.374Z,75.65
2019-04-28T18:56:34.749Z,75.86
2019-04-28T18:59:06.529Z,76.46
2019-04-28T19:01:54.748Z,76.63
2019-04-28T19:04:25.098Z,76.91
2019-04-28T19:07:04.812Z,76.92
2019-04-28T19:09:59.283Z,77.25
2019-04-28T19:12:42.861Z,77.21
2019-04-28T19:15:37.881Z,77.15
2019-04-28T19:18:12.635Z,77.88
2019-04-28T19:20:48.845Z,77.97
2019-04-28T19:23:19.177Z,78.52
2019-04-28T19:25:49.555Z,78.91
2019-04-28T19:28:23.333Z,78.87
2019-04-28T19:30:54.099Z,79.03
2019-04-28T19:33:24.525Z,79.74
2019-04-28T19:35:55.040Z,79.62
2019-04-28T19:38:25.463Z,79.65
2019-04-28T19:40:55.998Z,80.20
2019-04-28T19:43:26.467Z,80.08
2019-04-28T19:45:58.566Z,80.32
2019-04-28T19:48:29.333Z,80.57
2019-04-28T19:50:59.990Z,80.73
2019-04-28T19:53:31.920Z,81.28
2019-04-28T19:56:14.585Z,80.88
2019-04-28T19:58:56.645Z,81.02
2019-04-28T20:01:29.145Z,81.36
2019-04-28T20:04:00.056Z,81.59
2019-04-28T20:06:31.924Z,81.56
2019-04-28T20:09:05.450Z,81.91
2019-04-28T20:11:35.872Z,82.22
2019-04-28T20:14:06.104Z,82.70
2019-04-28T20:16:36.433Z,83.17
2019-04-28T20:19:06.688Z,83.24
2019-04-28T20:21:36.966Z,83.47
2019-04-28T20:24:09.772Z,82.53
2019-04-28T20:26:41.088Z,82.89
2019-04-28T20:29:11.347Z,83.21
2019-04-28T20:31:41.517Z,83.33
2019-04-28T20:34:14.755Z,83.54
2019-04-28T20:36:59.299Z,83.82
2019-04-28T20:39:31.284Z,84.05
2019-04-28T20:42:19.131Z,84.07
2019-04-28T20:44:49.574Z,84.00
2019-04-28T20:47:19.700Z,84.18
2019-04-28T20:49:49.822Z,84.47
2019-04-28T20:52:19.941Z,84.68
2019-04-28T20:54:50.052Z,84.72
2019-04-28T20:57:20.145Z,84.15
2019-04-28T20:59:50.282Z,84.74
2019-04-28T21:02:20.394Z,85.09
2019-04-28T21:04:50.498Z,85.20
2019-04-28T21:07:20.658Z,85.33
2019-04-28T21:09:50.747Z,84.57
2019-04-28T21:12:20.851Z,84.60
2019-04-28T21:14:51.029Z,84.71
2019-04-28T21:17:21.154Z,84.44
2019-04-28T21:19:51.270Z,84.44
2019-04-28T21:22:21.355Z,84.67
2019-04-28T21:24:51.533Z,85.01
2019-04-28T21:27:21.604Z,85.21
2019-04-28T21:29:51.842Z,85.54
2019-04-28T21:32:21.903Z,85.81
2019-04-28T21:34:52.073Z,85.66
2019-04-28T21:37:22.179Z,86.21
2019-04-28T21:39:52.333Z,85.95
2019-04-28T21:42:24.509Z,86.42
2019-04-28T21:45:13.606Z,86.56
2019-04-28T21:47:43.687Z,86.91
2019-04-28T21:50:13.774Z,86.84
2019-04-28T21:52:43.872Z,87.22
2019-04-28T21:55:14.006Z,86.87
2019-04-28T21:57:47.025Z,86.53
2019-04-28T22:00:18.108Z,86.58
2019-04-28T22:02:48.182Z,86.38
2019-04-28T22:05:29.913Z,86.79
2019-04-28T22:07:50.051Z,87.17
2019-04-28T22:10:20.141Z,87.27
2019-04-28T22:12:50.227Z,87.37
2019-04-28T22:15:20.303Z,87.14
2019-04-28T22:17:50.438Z,87.37
2019-04-28T22:20:20.493Z,86.78
2019-04-28T22:22:50.620Z,87.58
2019-04-28T22:25:22.605Z,87.26
2019-04-28T22:27:52.688Z,87.42
2019-04-28T22:30:22.779Z,87.22
2019-04-28T22:32:52.881Z,87.50
2019-04-28T22:35:22.957Z,87.33
2019-04-28T22:37:53.018Z,87.33
2019-04-28T22:40:23.130Z,87.65
2019-04-28T22:42:53.221Z,87.42
2019-04-28T22:45:23.315Z,87.71
2019-04-28T22:47:53.370Z,87.07
2019-04-28T22:50:38.090Z,87.35
2019-04-28T22:53:08.157Z,87.45
2019-04-28T22:55:43.775Z,87.62
2019-04-28T22:58:28.730Z,87.52
2019-04-28T23:01:02.910Z,87.50
2019-04-28T23:03:38.602Z,87.41
2019-04-28T23:06:10.456Z,87.37
2019-04-28T23:08:40.478Z,87.08
2019-04-28T23:11:10.580Z,87.64
2019-04-28T23:13:40.643Z,87.40
2019-04-28T23:16:10.759Z,87.21
2019-04-28T23:18:40.798Z,87.64
2019-04-28T23:21:29.067Z,87.57
2019-04-28T23:23:59.134Z,87.34
2019-04-28T23:26:29.341Z,87.28
2019-04-28T23:28:59.470Z,87.58
2019-04-28T23:31:29.558Z,87.02
2019-04-28T23:33:59.651Z,87.08
2019-04-28T23:36:29.744Z,86.94
2019-04-28T23:38:59.838Z,87.25
2019-04-28T23:41:35.857Z,87.28
2019-04-28T23:44:06.166Z,87.57
2019-04-28T23:46:53.948Z,87.62
2019-04-28T23:49:24.228Z,87.59
2019-04-28T23:52:13.293Z,87.67
2019-04-28T23:54:44.828Z,87.81
2019-04-28T23:57:14.941Z,87.64
2019-04-28T23:59:45.299Z,87.83
